ATL weather

Hartsfield Jackson Atlanta International Airport
Atlanta, Georgia, United States

Public forecast

Using degrees Fahrenheit for public forecast. Weather courtesy of forecast.io.

METAR (pilot weather report)

Retrieved 2018/11/16 21:52 UTC (9 minutes ago):

KATL 162152Z 31007KT 10SM SCT200 BKN250 13/02 A3012 RMK AO2 SLP206 T01280022

TAF (pilot weather forecast)

Retrieved 2018/11/16 18:22 UTC (4 hours ago):

TAF KATL 161720Z 1618/1724 32010KT P6SM SCT250 FM170100 30004KT P6SM SCT250